sensor_id;sensor_type;location;lat;lon;timestamp;temperature;humidity
7658;DHT22;8462;53.156;8.220;2023-03-23T00:01:48;13.70;99.90
7658;DHT22;8462;53.156;8.220;2023-03-23T00:04:16;13.80;99.90
7658;DHT22;8462;53.156;8.220;2023-03-23T00:06:43;13.80;99.90
7658;DHT22;8462;53.156;8.220;2023-03-23T00:09:11;13.80;99.90
7658;DHT22;8462;53.156;8.220;2023-03-23T00:11:41;13.90;99.90
7658;DHT22;8462;53.156;8.220;2023-03-23T00:14:09;13.90;99.90
7658;DHT22;8462;53.156;8.220;2023-03-23T00:16:39;13.90;99.90
7658;DHT22;8462;53.156;8.220;2023-03-23T00:19:10;13.90;99.90
7658;DHT22;8462;53.156;8.220;2023-03-23T00:21:40;13.90;99.90
7658;DHT22;8462;53.156;8.220;2023-03-23T00:24:09;13.90;99.90
7658;DHT22;8462;53.156;8.220;2023-03-23T00:26:38;13.90;99.90
7658;DHT22;8462;53.156;8.220;2023-03-23T00:29:07;13.90;99.90
7658;DHT22;8462;53.156;8.220;2023-03-23T00:31:39;13.90;99.90
7658;DHT22;8462;53.156;8.220;2023-03-23T00:34:06;13.90;99.90
7658;DHT22;8462;53.156;8.220;2023-03-23T00:36:37;13.90;99.90
7658;DHT22;8462;53.156;8.220;2023-03-23T00:39:09;13.90;99.90
7658;DHT22;8462;53.156;8.220;2023-03-23T00:41:37;13.90;99.90
7658;DHT22;8462;53.156;8.220;2023-03-23T00:44:04;13.90;99.90
7658;DHT22;8462;53.156;8.220;2023-03-23T00:46:34;13.90;99.90
7658;DHT22;8462;53.156;8.220;2023-03-23T00:49:11;14.00;99.90
7658;DHT22;8462;53.156;8.220;2023-03-23T00:51:40;13.90;99.90
7658;DHT22;8462;53.156;8.220;2023-03-23T00:54:08;14.00;99.90
7658;DHT22;8462;53.156;8.220;2023-03-23T00:56:36;13.90;99.90
7658;DHT22;8462;53.156;8.220;2023-03-23T00:59:04;14.00;99.90
7658;DHT22;8462;53.156;8.220;2023-03-23T01:01:32;14.00;99.90
7658;DHT22;8462;53.156;8.220;2023-03-23T01:03:59;14.00;99.90
7658;DHT22;8462;53.156;8.220;2023-03-23T01:06:30;13.90;99.90
7658;DHT22;8462;53.156;8.220;2023-03-23T01:08:58;13.90;99.90
7658;DHT22;8462;53.156;8.220;2023-03-23T01:11:26;13.90;99.90
7658;DHT22;8462;53.156;8.220;2023-03-23T01:13:53;14.00;99.90
7658;DHT22;8462;53.156;8.220;2023-03-23T01:16:20;14.00;99.90
7658;DHT22;8462;53.156;8.220;2023-03-23T01:18:47;14.00;99.90
7658;DHT22;8462;53.156;8.220;2023-03-23T01:21:15;14.00;99.90
7658;DHT22;8462;53.156;8.220;2023-03-23T01:23:43;14.10;99.90
7658;DHT22;8462;53.156;8.220;2023-03-23T01:26:13;14.10;99.90
7658;DHT22;8462;53.156;8.220;2023-03-23T01:28:40;14.10;99.90
7658;DHT22;8462;53.156;8.220;2023-03-23T01:31:09;14.10;99.90
7658;DHT22;8462;53.156;8.220;2023-03-23T01:33:38;14.10;99.90
7658;DHT22;8462;53.156;8.220;2023-03-23T01:36:09;14.10;99.90
7658;DHT22;8462;53.156;8.220;2023-03-23T01:38:37;14.10;99.90
7658;DHT22;8462;53.156;8.220;2023-03-23T01:41:04;14.10;99.90
7658;DHT22;8462;53.156;8.220;2023-03-23T01:43:33;14.10;99.90
7658;DHT22;8462;53.156;8.220;2023-03-23T01:46:00;14.10;99.90
7658;DHT22;8462;53.156;8.220;2023-03-23T01:48:29;14.10;99.90
7658;DHT22;8462;53.156;8.220;2023-03-23T01:51:01;14.20;99.90
7658;DHT22;8462;53.156;8.220;2023-03-23T01:53:33;14.20;99.90
7658;DHT22;8462;53.156;8.220;2023-03-23T01:56:02;14.20;99.90
7658;DHT22;8462;53.156;8.220;2023-03-23T01:58:31;14.20;99.90
7658;DHT22;8462;53.156;8.220;2023-03-23T02:01:03;14.20;99.90
7658;DHT22;8462;53.156;8.220;2023-03-23T02:03:32;14.20;99.90
7658;DHT22;8462;53.156;8.220;2023-03-23T02:06:01;14.20;99.90
7658;DHT22;8462;53.156;8.220;2023-03-23T02:08:56;14.20;99.90
7658;DHT22;8462;53.156;8.220;2023-03-23T02:11:23;14.10;99.90
7658;DHT22;8462;53.156;8.220;2023-03-23T02:13:50;14.10;99.90
7658;DHT22;8462;53.156;8.220;2023-03-23T02:16:26;14.10;99.90
7658;DHT22;8462;53.156;8.220;2023-03-23T02:18:58;14.10;99.90
7658;DHT22;8462;53.156;8.220;2023-03-23T02:22:06;14.00;99.90
7658;DHT22;8462;53.156;8.220;2023-03-23T02:24:58;14.00;99.90
7658;DHT22;8462;53.156;8.220;2023-03-23T02:27:49;14.00;99.90
7658;DHT22;8462;53.156;8.220;2023-03-23T02:30:54;14.00;99.90
7658;DHT22;8462;53.156;8.220;2023-03-23T02:33:46;14.00;99.90
7658;DHT22;8462;53.156;8.220;2023-03-23T02:36:20;14.00;99.90
7658;DHT22;8462;53.156;8.220;2023-03-23T02:38:56;14.00;99.90
7658;DHT22;8462;53.156;8.220;2023-03-23T02:41:28;14.00;99.90
7658;DHT22;8462;53.156;8.220;2023-03-23T02:43:57;13.90;99.90
7658;DHT22;8462;53.156;8.220;2023-03-23T02:46:26;13.90;99.90
7658;DHT22;8462;53.156;8.220;2023-03-23T02:48:55;13.90;99.90
7658;DHT22;8462;53.156;8.220;2023-03-23T02:51:24;13.90;99.90
7658;DHT22;8462;53.156;8.220;2023-03-23T02:53:56;13.90;99.90
7658;DHT22;8462;53.156;8.220;2023-03-23T02:56:25;13.90;99.90
7658;DHT22;8462;53.156;8.220;2023-03-23T02:58:54;13.90;99.90
7658;DHT22;8462;53.156;8.220;2023-03-23T03:04:33;13.90;99.90
7658;DHT22;8462;53.156;8.220;2023-03-23T03:09:49;13.90;99.90
7658;DHT22;8462;53.156;8.220;2023-03-23T03:12:22;13.90;99.90
7658;DHT22;8462;53.156;8.220;2023-03-23T03:14:57;13.90;99.90
7658;DHT22;8462;53.156;8.220;2023-03-23T03:17:26;13.90;99.90
7658;DHT22;8462;53.156;8.220;2023-03-23T03:19:56;13.90;99.90
7658;DHT22;8462;53.156;8.220;2023-03-23T03:22:26;13.90;99.90
7658;DHT22;8462;53.156;8.220;2023-03-23T03:24:56;13.90;99.90
7658;DHT22;8462;53.156;8.220;2023-03-23T03:27:25;14.00;99.90
7658;DHT22;8462;53.156;8.220;2023-03-23T03:30:09;13.90;99.90
7658;DHT22;8462;53.156;8.220;2023-03-23T03:32:43;14.00;99.90
7658;DHT22;8462;53.156;8.220;2023-03-23T03:35:13;14.00;99.90
7658;DHT22;8462;53.156;8.220;2023-03-23T03:37:41;13.90;99.90
7658;DHT22;8462;53.156;8.220;2023-03-23T03:40:11;14.00;99.90
7658;DHT22;8462;53.156;8.220;2023-03-23T03:42:41;13.90;99.90
7658;DHT22;8462;53.156;8.220;2023-03-23T03:45:10;13.90;99.90
7658;DHT22;8462;53.156;8.220;2023-03-23T03:47:37;13.90;99.90
7658;DHT22;8462;53.156;8.220;2023-03-23T03:50:05;13.90;99.90
7658;DHT22;8462;53.156;8.220;2023-03-23T03:52:34;14.00;99.90
7658;DHT22;8462;53.156;8.220;2023-03-23T03:55:01;13.90;99.90
7658;DHT22;8462;53.156;8.220;2023-03-23T03:57:31;14.00;99.90
7658;DHT22;8462;53.156;8.220;2023-03-23T04:00:05;13.90;99.90
7658;DHT22;8462;53.156;8.220;2023-03-23T04:02:41;14.00;99.90
7658;DHT22;8462;53.156;8.220;2023-03-23T04:05:09;13.90;99.90
7658;DHT22;8462;53.156;8.220;2023-03-23T04:07:38;14.00;99.90
7658;DHT22;8462;53.156;8.220;2023-03-23T04:10:08;14.00;99.90
7658;DHT22;8462;53.156;8.220;2023-03-23T04:12:36;14.00;99.90
7658;DHT22;8462;53.156;8.220;2023-03-23T04:15:22;14.00;99.90
7658;DHT22;8462;53.156;8.220;2023-03-23T04:17:50;14.00;99.90
7658;DHT22;8462;53.156;8.220;2023-03-23T04:20:17;13.90;99.90
7658;DHT22;8462;53.156;8.220;2023-03-23T04:22:50;13.90;99.90
7658;DHT22;8462;53.156;8.220;2023-03-23T04:25:22;13.90;99.90
7658;DHT22;8462;53.156;8.220;2023-03-23T04:27:51;13.90;99.90
7658;DHT22;8462;53.156;8.220;2023-03-23T04:30:24;13.90;99.90
7658;DHT22;8462;53.156;8.220;2023-03-23T04:33:09;14.00;99.90
7658;DHT22;8462;53.156;8.220;2023-03-23T04:35:41;13.90;99.90
7658;DHT22;8462;53.156;8.220;2023-03-23T04:38:24;13.90;99.90
7658;DHT22;8462;53.156;8.220;2023-03-23T04:40:58;13.90;99.90
7658;DHT22;8462;53.156;8.220;2023-03-23T04:43:40;13.90;99.90
7658;DHT22;8462;53.156;8.220;2023-03-23T04:46:19;13.90;99.90
7658;DHT22;8462;53.156;8.220;2023-03-23T04:48:48;13.90;99.90
7658;DHT22;8462;53.156;8.220;2023-03-23T04:51:23;13.90;99.90
7658;DHT22;8462;53.156;8.220;2023-03-23T04:53:52;13.90;99.90
7658;DHT22;8462;53.156;8.220;2023-03-23T04:56:20;13.90;99.90
7658;DHT22;8462;53.156;8.220;2023-03-23T04:58:47;13.90;99.90
7658;DHT22;8462;53.156;8.220;2023-03-23T05:01:33;14.00;99.90
7658;DHT22;8462;53.156;8.220;2023-03-23T05:04:17;13.90;99.90
7658;DHT22;8462;53.156;8.220;2023-03-23T05:07:04;13.90;99.90
7658;DHT22;8462;53.156;8.220;2023-03-23T05:09:37;14.00;99.90
7658;DHT22;8462;53.156;8.220;2023-03-23T05:12:05;13.90;99.90
7658;DHT22;8462;53.156;8.220;2023-03-23T05:14:33;14.00;99.90
7658;DHT22;8462;53.156;8.220;2023-03-23T05:17:06;13.90;99.90
7658;DHT22;8462;53.156;8.220;2023-03-23T05:19:35;13.90;99.90
7658;DHT22;8462;53.156;8.220;2023-03-23T05:22:12;14.00;99.90
7658;DHT22;8462;53.156;8.220;2023-03-23T05:24:47;13.90;99.90
7658;DHT22;8462;53.156;8.220;2023-03-23T05:27:17;13.90;99.90
7658;DHT22;8462;53.156;8.220;2023-03-23T05:29:47;13.90;99.90
7658;DHT22;8462;53.156;8.220;2023-03-23T05:32:15;13.90;99.90
7658;DHT22;8462;53.156;8.220;2023-03-23T05:34:43;13.90;99.90
7658;DHT22;8462;53.156;8.220;2023-03-23T05:37:10;13.80;99.90
7658;DHT22;8462;53.156;8.220;2023-03-23T05:39:58;13.80;99.90
7658;DHT22;8462;53.156;8.220;2023-03-23T05:42:34;13.80;99.90
7658;DHT22;8462;53.156;8.220;2023-03-23T05:45:25;13.80;99.90
7658;DHT22;8462;53.156;8.220;2023-03-23T05:47:52;13.80;99.90
7658;DHT22;8462;53.156;8.220;2023-03-23T05:50:20;13.70;99.90
7658;DHT22;8462;53.156;8.220;2023-03-23T05:52:48;13.80;99.90
7658;DHT22;8462;53.156;8.220;2023-03-23T05:55:18;13.80;99.90
7658;DHT22;8462;53.156;8.220;2023-03-23T05:57:51;13.80;99.90
7658;DHT22;8462;53.156;8.220;2023-03-23T06:00:27;13.90;99.90
7658;DHT22;8462;53.156;8.220;2023-03-23T06:03:05;13.90;99.90
7658;DHT22;8462;53.156;8.220;2023-03-23T06:05:43;13.90;99.90
7658;DHT22;8462;53.156;8.220;2023-03-23T06:08:13;14.00;99.90
7658;DHT22;8462;53.156;8.220;2023-03-23T06:10:41;14.10;99.90
7658;DHT22;8462;53.156;8.220;2023-03-23T06:13:10;14.20;99.90
7658;DHT22;8462;53.156;8.220;2023-03-23T06:15:45;14.40;99.90
7658;DHT22;8462;53.156;8.220;2023-03-23T06:18:18;14.60;99.90
7658;DHT22;8462;53.156;8.220;2023-03-23T06:21:10;14.80;99.90
7658;DHT22;8462;53.156;8.220;2023-03-23T06:23:47;14.90;99.90
7658;DHT22;8462;53.156;8.220;2023-03-23T06:26:19;14.90;99.90
7658;DHT22;8462;53.156;8.220;2023-03-23T06:28:51;14.90;99.90
7658;DHT22;8462;53.156;8.220;2023-03-23T06:31:19;14.80;99.90
7658;DHT22;8462;53.156;8.220;2023-03-23T06:33:47;14.70;99.90
7658;DHT22;8462;53.156;8.220;2023-03-23T06:36:34;14.60;99.90
7658;DHT22;8462;53.156;8.220;2023-03-23T06:39:12;14.50;99.90
7658;DHT22;8462;53.156;8.220;2023-03-23T06:42:11;14.40;99.90
7658;DHT22;8462;53.156;8.220;2023-03-23T06:44:46;14.30;99.90
7658;DHT22;8462;53.156;8.220;2023-03-23T06:47:14;14.20;99.90
7658;DHT22;8462;53.156;8.220;2023-03-23T06:49:45;14.10;99.90
7658;DHT22;8462;53.156;8.220;2023-03-23T06:52:19;13.90;99.90
7658;DHT22;8462;53.156;8.220;2023-03-23T06:54:46;13.90;99.90
7658;DHT22;8462;53.156;8.220;2023-03-23T06:57:15;13.80;99.90
7658;DHT22;8462;53.156;8.220;2023-03-23T06:59:44;13.80;99.90
7658;DHT22;8462;53.156;8.220;2023-03-23T07:02:13;13.80;99.90
7658;DHT22;8462;53.156;8.220;2023-03-23T07:04:42;13.70;99.90
7658;DHT22;8462;53.156;8.220;2023-03-23T07:07:14;13.70;99.90
7658;DHT22;8462;53.156;8.220;2023-03-23T07:09:58;13.70;99.90
7658;DHT22;8462;53.156;8.220;2023-03-23T07:12:27;13.60;99.90
7658;DHT22;8462;53.156;8.220;2023-03-23T07:14:57;13.60;99.90
7658;DHT22;8462;53.156;8.220;2023-03-23T07:17:25;13.60;99.90
7658;DHT22;8462;53.156;8.220;2023-03-23T07:20:22;13.60;99.90
7658;DHT22;8462;53.156;8.220;2023-03-23T07:22:49;13.60;99.90
7658;DHT22;8462;53.156;8.220;2023-03-23T07:25:26;13.70;99.90
7658;DHT22;8462;53.156;8.220;2023-03-23T07:27:58;13.90;99.90
7658;DHT22;8462;53.156;8.220;2023-03-23T07:30:25;14.00;99.90
7658;DHT22;8462;53.156;8.220;2023-03-23T07:32:55;14.00;99.90
7658;DHT22;8462;53.156;8.220;2023-03-23T07:35:22;14.00;99.90
7658;DHT22;8462;53.156;8.220;2023-03-23T07:37:57;14.00;99.90
7658;DHT22;8462;53.156;8.220;2023-03-23T07:40:25;14.10;99.90
7658;DHT22;8462;53.156;8.220;2023-03-23T07:42:55;14.20;99.90
7658;DHT22;8462;53.156;8.220;2023-03-23T07:45:43;14.30;99.90
7658;DHT22;8462;53.156;8.220;2023-03-23T07:48:12;14.40;99.90
7658;DHT22;8462;53.156;8.220;2023-03-23T07:50:39;14.60;99.90
7658;DHT22;8462;53.156;8.220;2023-03-23T07:53:09;14.60;99.90
7658;DHT22;8462;53.156;8.220;2023-03-23T07:55:37;14.60;99.90
7658;DHT22;8462;53.156;8.220;2023-03-23T07:58:25;14.60;99.90
7658;DHT22;8462;53.156;8.220;2023-03-23T08:00:56;14.60;99.90
7658;DHT22;8462;53.156;8.220;2023-03-23T08:03:26;14.70;99.90
7658;DHT22;8462;53.156;8.220;2023-03-23T08:06:09;14.80;99.90
7658;DHT22;8462;53.156;8.220;2023-03-23T08:08:50;15.10;99.90
7658;DHT22;8462;53.156;8.220;2023-03-23T08:11:52;15.20;99.90
7658;DHT22;8462;53.156;8.220;2023-03-23T08:14:38;15.20;97.10
7658;DHT22;8462;53.156;8.220;2023-03-23T08:17:27;15.30;97.50
7658;DHT22;8462;53.156;8.220;2023-03-23T08:20:14;15.30;98.10
7658;DHT22;8462;53.156;8.220;2023-03-23T08:23:01;15.40;96.90
7658;DHT22;8462;53.156;8.220;2023-03-23T08:25:57;15.40;95.80
7658;DHT22;8462;53.156;8.220;2023-03-23T08:28:45;15.30;95.60
7658;DHT22;8462;53.156;8.220;2023-03-23T08:31:31;15.30;95.40
7658;DHT22;8462;53.156;8.220;2023-03-23T08:34:01;15.20;96.20
7658;DHT22;8462;53.156;8.220;2023-03-23T08:36:46;15.30;96.80
7658;DHT22;8462;53.156;8.220;2023-03-23T08:39:33;15.30;95.50
7658;DHT22;8462;53.156;8.220;2023-03-23T08:42:20;15.40;94.60
7658;DHT22;8462;53.156;8.220;2023-03-23T08:45:17;15.40;94.30
7658;DHT22;8462;53.156;8.220;2023-03-23T08:47:59;15.40;95.20
7658;DHT22;8462;53.156;8.220;2023-03-23T08:51:00;15.50;94.90
7658;DHT22;8462;53.156;8.220;2023-03-23T08:53:57;15.70;93.40
7658;DHT22;8462;53.156;8.220;2023-03-23T08:56:44;15.90;93.90
7658;DHT22;8462;53.156;8.220;2023-03-23T08:59:27;16.10;91.80
7658;DHT22;8462;53.156;8.220;2023-03-23T09:02:05;16.20;89.50
7658;DHT22;8462;53.156;8.220;2023-03-23T09:04:37;16.30;88.10
7658;DHT22;8462;53.156;8.220;2023-03-23T09:07:26;16.30;83.90
7658;DHT22;8462;53.156;8.220;2023-03-23T09:09:53;16.40;84.60
7658;DHT22;8462;53.156;8.220;2023-03-23T09:12:20;16.50;85.00
7658;DHT22;8462;53.156;8.220;2023-03-23T09:14:47;16.70;82.10
7658;DHT22;8462;53.156;8.220;2023-03-23T09:17:14;16.70;80.20
7658;DHT22;8462;53.156;8.220;2023-03-23T09:19:41;16.70;80.20
7658;DHT22;8462;53.156;8.220;2023-03-23T09:22:08;16.80;79.70
7658;DHT22;8462;53.156;8.220;2023-03-23T09:24:37;16.80;80.30
7658;DHT22;8462;53.156;8.220;2023-03-23T09:27:04;17.00;79.90
7658;DHT22;8462;53.156;8.220;2023-03-23T09:29:31;17.00;78.30
7658;DHT22;8462;53.156;8.220;2023-03-23T09:31:58;17.00;78.80
7658;DHT22;8462;53.156;8.220;2023-03-23T09:34:25;17.00;78.90
7658;DHT22;8462;53.156;8.220;2023-03-23T09:36:54;16.90;77.70
7658;DHT22;8462;53.156;8.220;2023-03-23T09:39:22;16.90;79.60
7658;DHT22;8462;53.156;8.220;2023-03-23T09:45:08;17.00;79.70
7658;DHT22;8462;53.156;8.220;2023-03-23T09:47:42;17.00;80.80
7658;DHT22;8462;53.156;8.220;2023-03-23T09:50:15;17.00;81.60
7658;DHT22;8462;53.156;8.220;2023-03-23T09:52:47;16.90;82.40
7658;DHT22;8462;53.156;8.220;2023-03-23T09:55:21;16.90;82.50
7658;DHT22;8462;53.156;8.220;2023-03-23T09:57:54;17.00;82.40
7658;DHT22;8462;53.156;8.220;2023-03-23T10:00:26;17.10;81.90
7658;DHT22;8462;53.156;8.220;2023-03-23T10:03:02;17.10;78.90
7658;DHT22;8462;53.156;8.220;2023-03-23T10:05:34;16.90;80.00
7658;DHT22;8462;53.156;8.220;2023-03-23T10:08:11;16.80;78.90
7658;DHT22;8462;53.156;8.220;2023-03-23T10:10:53;16.80;79.60
7658;DHT22;8462;53.156;8.220;2023-03-23T10:13:32;16.90;79.50
7658;DHT22;8462;53.156;8.220;2023-03-23T10:16:03;16.90;78.10
7658;DHT22;8462;53.156;8.220;2023-03-23T10:18:41;16.80;77.70
7658;DHT22;8462;53.156;8.220;2023-03-23T10:21:13;16.80;75.00
7658;DHT22;8462;53.156;8.220;2023-03-23T10:23:51;16.70;76.70
7658;DHT22;8462;53.156;8.220;2023-03-23T10:26:29;16.70;76.20
7658;DHT22;8462;53.156;8.220;2023-03-23T10:29:11;16.70;75.40
7658;DHT22;8462;53.156;8.220;2023-03-23T10:31:42;16.80;75.60
7658;DHT22;8462;53.156;8.220;2023-03-23T10:34:15;16.80;74.30
7658;DHT22;8462;53.156;8.220;2023-03-23T10:36:55;16.90;74.30
7658;DHT22;8462;53.156;8.220;2023-03-23T10:39:29;16.80;74.70
7658;DHT22;8462;53.156;8.220;2023-03-23T10:42:00;16.60;74.90
7658;DHT22;8462;53.156;8.220;2023-03-23T10:44:35;16.60;76.40
7658;DHT22;8462;53.156;8.220;2023-03-23T10:47:05;16.70;77.20
7658;DHT22;8462;53.156;8.220;2023-03-23T10:49:38;16.80;77.50
7658;DHT22;8462;53.156;8.220;2023-03-23T10:52:17;17.10;76.20
7658;DHT22;8462;53.156;8.220;2023-03-23T10:54:51;17.20;75.70
7658;DHT22;8462;53.156;8.220;2023-03-23T10:57:24;17.30;75.70
7658;DHT22;8462;53.156;8.220;2023-03-23T10:59:58;17.20;75.20
7658;DHT22;8462;53.156;8.220;2023-03-23T11:02:28;17.20;75.60
7658;DHT22;8462;53.156;8.220;2023-03-23T11:04:58;17.10;76.10
7658;DHT22;8462;53.156;8.220;2023-03-23T11:07:29;17.20;75.40
7658;DHT22;8462;53.156;8.220;2023-03-23T11:10:05;17.30;75.30
7658;DHT22;8462;53.156;8.220;2023-03-23T11:12:35;17.40;74.70
7658;DHT22;8462;53.156;8.220;2023-03-23T11:15:28;17.50;74.60
7658;DHT22;8462;53.156;8.220;2023-03-23T11:17:59;17.60;73.50
7658;DHT22;8462;53.156;8.220;2023-03-23T11:20:28;17.70;73.60
7658;DHT22;8462;53.156;8.220;2023-03-23T11:22:56;17.70;73.10
7658;DHT22;8462;53.156;8.220;2023-03-23T11:25:24;17.70;73.60
7658;DHT22;8462;53.156;8.220;2023-03-23T11:27:52;17.70;72.90
7658;DHT22;8462;53.156;8.220;2023-03-23T11:30:24;17.50;73.10
7658;DHT22;8462;53.156;8.220;2023-03-23T11:32:54;17.30;73.00
7658;DHT22;8462;53.156;8.220;2023-03-23T11:35:25;17.20;71.80
7658;DHT22;8462;53.156;8.220;2023-03-23T11:37:54;17.20;71.80
7658;DHT22;8462;53.156;8.220;2023-03-23T11:40:24;17.30;73.00
7658;DHT22;8462;53.156;8.220;2023-03-23T11:42:58;17.30;71.50
7658;DHT22;8462;53.156;8.220;2023-03-23T11:45:32;17.40;70.80
7658;DHT22;8462;53.156;8.220;2023-03-23T11:48:14;17.50;70.00
7658;DHT22;8462;53.156;8.220;2023-03-23T11:50:48;17.70;70.20
7658;DHT22;8462;53.156;8.220;2023-03-23T11:53:25;18.00;69.80
7658;DHT22;8462;53.156;8.220;2023-03-23T11:56:12;18.30;67.50
7658;DHT22;8462;53.156;8.220;2023-03-23T11:58:42;18.40;67.10
7658;DHT22;8462;53.156;8.220;2023-03-23T12:01:36;18.50;66.50
7658;DHT22;8462;53.156;8.220;2023-03-23T12:04:26;18.40;65.50
7658;DHT22;8462;53.156;8.220;2023-03-23T12:07:06;18.20;65.30
7658;DHT22;8462;53.156;8.220;2023-03-23T12:09:43;18.30;66.40
7658;DHT22;8462;53.156;8.220;2023-03-23T12:12:21;18.30;65.80
7658;DHT22;8462;53.156;8.220;2023-03-23T12:14:56;18.50;64.80
7658;DHT22;8462;53.156;8.220;2023-03-23T12:17:37;18.50;63.00
7658;DHT22;8462;53.156;8.220;2023-03-23T12:20:23;18.50;62.60
7658;DHT22;8462;53.156;8.220;2023-03-23T12:23:02;18.40;63.50
7658;DHT22;8462;53.156;8.220;2023-03-23T12:25:43;18.60;63.70
7658;DHT22;8462;53.156;8.220;2023-03-23T12:28:21;18.70;62.30
7658;DHT22;8462;53.156;8.220;2023-03-23T12:30:57;18.60;62.20
7658;DHT22;8462;53.156;8.220;2023-03-23T12:33:49;18.50;63.10
7658;DHT22;8462;53.156;8.220;2023-03-23T12:36:30;18.40;62.00
7658;DHT22;8462;53.156;8.220;2023-03-23T12:42:18;18.10;60.60
7658;DHT22;8462;53.156;8.220;2023-03-23T12:44:52;18.00;62.10
7658;DHT22;8462;53.156;8.220;2023-03-23T12:47:34;18.30;62.90
7658;DHT22;8462;53.156;8.220;2023-03-23T12:50:10;18.50;61.80
7658;DHT22;8462;53.156;8.220;2023-03-23T12:52:43;18.60;60.00
7658;DHT22;8462;53.156;8.220;2023-03-23T12:55:17;18.70;59.20
7658;DHT22;8462;53.156;8.220;2023-03-23T12:57:49;18.70;58.90
7658;DHT22;8462;53.156;8.220;2023-03-23T13:00:23;18.70;59.10
7658;DHT22;8462;53.156;8.220;2023-03-23T13:02:57;18.70;60.00
7658;DHT22;8462;53.156;8.220;2023-03-23T13:05:41;18.80;60.30
7658;DHT22;8462;53.156;8.220;2023-03-23T13:08:14;18.70;60.30
7658;DHT22;8462;53.156;8.220;2023-03-23T13:10:45;18.70;60.50
7658;DHT22;8462;53.156;8.220;2023-03-23T13:13:17;18.70;59.40
7658;DHT22;8462;53.156;8.220;2023-03-23T13:16:01;18.60;59.90
7658;DHT22;8462;53.156;8.220;2023-03-23T13:18:38;18.70;59.70
7658;DHT22;8462;53.156;8.220;2023-03-23T13:21:16;18.80;60.00
7658;DHT22;8462;53.156;8.220;2023-03-23T13:23:49;18.80;59.10
7658;DHT22;8462;53.156;8.220;2023-03-23T13:26:19;18.90;59.40
7658;DHT22;8462;53.156;8.220;2023-03-23T13:28:58;18.90;59.30
7658;DHT22;8462;53.156;8.220;2023-03-23T13:31:29;18.90;60.10
7658;DHT22;8462;53.156;8.220;2023-03-23T13:34:02;19.00;59.50
7658;DHT22;8462;53.156;8.220;2023-03-23T13:36:35;19.20;58.90
7658;DHT22;8462;53.156;8.220;2023-03-23T13:39:04;19.20;58.40
7658;DHT22;8462;53.156;8.220;2023-03-23T13:41:34;19.20;58.10
7658;DHT22;8462;53.156;8.220;2023-03-23T13:44:22;19.20;58.60
7658;DHT22;8462;53.156;8.220;2023-03-23T13:46:57;19.20;59.60
7658;DHT22;8462;53.156;8.220;2023-03-23T13:49:25;19.30;59.20
7658;DHT22;8462;53.156;8.220;2023-03-23T13:52:13;19.20;57.40
7658;DHT22;8462;53.156;8.220;2023-03-23T13:54:45;19.20;57.70
7658;DHT22;8462;53.156;8.220;2023-03-23T13:57:26;19.10;56.60
7658;DHT22;8462;53.156;8.220;2023-03-23T13:59:58;19.30;57.40
7658;DHT22;8462;53.156;8.220;2023-03-23T14:02:34;19.30;57.70
7658;DHT22;8462;53.156;8.220;2023-03-23T14:05:30;19.30;57.20
7658;DHT22;8462;53.156;8.220;2023-03-23T14:08:02;19.00;56.70
7658;DHT22;8462;53.156;8.220;2023-03-23T14:10:35;18.80;59.10
7658;DHT22;8462;53.156;8.220;2023-03-23T14:13:10;18.80;59.50
7658;DHT22;8462;53.156;8.220;2023-03-23T14:15:43;18.60;58.90
7658;DHT22;8462;53.156;8.220;2023-03-23T14:18:14;18.60;59.80
7658;DHT22;8462;53.156;8.220;2023-03-23T14:20:43;18.70;59.40
7658;DHT22;8462;53.156;8.220;2023-03-23T14:23:17;18.80;58.60
7658;DHT22;8462;53.156;8.220;2023-03-23T14:25:44;18.90;58.80
7658;DHT22;8462;53.156;8.220;2023-03-23T14:28:17;18.80;58.00
7658;DHT22;8462;53.156;8.220;2023-03-23T14:30:47;18.70;58.70
7658;DHT22;8462;53.156;8.220;2023-03-23T14:33:15;18.50;59.50
7658;DHT22;8462;53.156;8.220;2023-03-23T14:35:43;18.40;60.10
7658;DHT22;8462;53.156;8.220;2023-03-23T14:38:17;18.30;60.70
7658;DHT22;8462;53.156;8.220;2023-03-23T14:40:46;18.30;61.60
7658;DHT22;8462;53.156;8.220;2023-03-23T14:43:16;18.20;62.40
7658;DHT22;8462;53.156;8.220;2023-03-23T14:45:45;18.20;62.40
7658;DHT22;8462;53.156;8.220;2023-03-23T14:48:15;18.10;62.60
7658;DHT22;8462;53.156;8.220;2023-03-23T14:50:49;18.10;63.10
7658;DHT22;8462;53.156;8.220;2023-03-23T14:53:21;18.10;63.30
7658;DHT22;8462;53.156;8.220;2023-03-23T14:55:50;18.00;63.40
7658;DHT22;8462;53.156;8.220;2023-03-23T14:58:19;18.00;64.40
7658;DHT22;8462;53.156;8.220;2023-03-23T15:00:49;17.90;63.30
7658;DHT22;8462;53.156;8.220;2023-03-23T15:03:18;17.80;63.50
7658;DHT22;8462;53.156;8.220;2023-03-23T15:05:47;17.70;63.50
7658;DHT22;8462;53.156;8.220;2023-03-23T15:08:20;17.60;63.50
7658;DHT22;8462;53.156;8.220;2023-03-23T15:10:53;17.60;63.70
7658;DHT22;8462;53.156;8.220;2023-03-23T15:13:21;17.60;63.90
7658;DHT22;8462;53.156;8.220;2023-03-23T15:15:48;17.50;64.20
7658;DHT22;8462;53.156;8.220;2023-03-23T15:18:37;17.40;67.30
7658;DHT22;8462;53.156;8.220;2023-03-23T15:21:10;17.30;69.40
7658;DHT22;8462;53.156;8.220;2023-03-23T15:23:42;17.10;69.90
7658;DHT22;8462;53.156;8.220;2023-03-23T15:26:23;17.00;71.30
7658;DHT22;8462;53.156;8.220;2023-03-23T15:28:51;16.90;73.20
7658;DHT22;8462;53.156;8.220;2023-03-23T15:31:27;16.90;73.30
7658;DHT22;8462;53.156;8.220;2023-03-23T15:33:58;16.80;72.30
7658;DHT22;8462;53.156;8.220;2023-03-23T15:36:25;16.80;72.00
7658;DHT22;8462;53.156;8.220;2023-03-23T15:38:59;16.80;70.40
7658;DHT22;8462;53.156;8.220;2023-03-23T15:41:27;16.80;69.70
7658;DHT22;8462;53.156;8.220;2023-03-23T15:43:56;16.80;69.70
7658;DHT22;8462;53.156;8.220;2023-03-23T15:46:25;16.80;70.40
7658;DHT22;8462;53.156;8.220;2023-03-23T15:48:54;16.90;70.00
7658;DHT22;8462;53.156;8.220;2023-03-23T15:51:30;16.90;69.60
7658;DHT22;8462;53.156;8.220;2023-03-23T15:53:59;16.80;69.50
7658;DHT22;8462;53.156;8.220;2023-03-23T15:56:27;16.90;69.20
7658;DHT22;8462;53.156;8.220;2023-03-23T15:58:56;17.00;68.70
7658;DHT22;8462;53.156;8.220;2023-03-23T16:01:26;17.10;67.70
7658;DHT22;8462;53.156;8.220;2023-03-23T16:03:55;17.10;68.20
7658;DHT22;8462;53.156;8.220;2023-03-23T16:06:27;17.10;68.00
7658;DHT22;8462;53.156;8.220;2023-03-23T16:08:56;17.00;67.20
7658;DHT22;8462;53.156;8.220;2023-03-23T16:11:26;16.90;66.60
7658;DHT22;8462;53.156;8.220;2023-03-23T16:14:01;16.80;67.20
7658;DHT22;8462;53.156;8.220;2023-03-23T16:16:30;16.70;67.30
7658;DHT22;8462;53.156;8.220;2023-03-23T16:18:57;16.60;67.60
7658;DHT22;8462;53.156;8.220;2023-03-23T16:21:24;16.60;68.20
7658;DHT22;8462;53.156;8.220;2023-03-23T16:23:51;16.60;67.70
7658;DHT22;8462;53.156;8.220;2023-03-23T16:26:18;16.50;67.40
7658;DHT22;8462;53.156;8.220;2023-03-23T16:28:46;16.60;67.90
7658;DHT22;8462;53.156;8.220;2023-03-23T16:31:13;16.60;67.80
7658;DHT22;8462;53.156;8.220;2023-03-23T16:33:40;16.60;67.80
7658;DHT22;8462;53.156;8.220;2023-03-23T16:36:10;16.60;67.80
7658;DHT22;8462;53.156;8.220;2023-03-23T16:38:37;16.60;68.10
7658;DHT22;8462;53.156;8.220;2023-03-23T16:41:04;16.60;68.40
7658;DHT22;8462;53.156;8.220;2023-03-23T16:43:31;16.60;68.10
7658;DHT22;8462;53.156;8.220;2023-03-23T16:45:59;16.60;68.20
7658;DHT22;8462;53.156;8.220;2023-03-23T16:48:26;16.60;68.40
7658;DHT22;8462;53.156;8.220;2023-03-23T16:50:54;16.60;68.90
7658;DHT22;8462;53.156;8.220;2023-03-23T16:53:21;16.60;68.50
7658;DHT22;8462;53.156;8.220;2023-03-23T16:55:50;16.50;69.20